Time;durP1;ratioP1;P1;durP2;ratioP2;P2;SDS_P1;SDS_P2;PMS_P1;PMS_P2;Temp;Humidity;BMP_temperature;BMP_pressure;BME280_temperature;BME280_humidity;BME280_pressure;Samples;Min_cycle;Max_cycle;Signal;HPM_P1;HPM_P2
2021/07/27 00:01:11;;;;;;;;;;;18.20;99.90;;;;;;5036963;28;20019;-87
2021/07/27 00:03:37;;;;;;;;;;;18.10;99.90;;;;;;5039922;28;19975;-87
2021/07/27 00:06:09;;;;;;;;;;;18.10;99.90;;;;;;5034708;28;19935;-88
2021/07/27 00:08:36;;;;;;;;;;;18.10;99.90;;;;;;5037558;28;20433;-87
2021/07/27 00:11:04;;;;;;;;;;;18.10;99.90;;;;;;5025305;28;19925;-88
2021/07/27 00:13:30;;;;;;;;;;;18.10;99.90;;;;;;5038265;28;19933;-87
2021/07/27 00:15:56;;;;;;;;;;;18.00;99.90;;;;;;5038929;28;19921;-87
2021/07/27 00:18:22;;;;;;;;;;;18.10;99.90;;;;;;5044991;28;19971;-88
2021/07/27 00:20:48;;;;;;;;;;;18.00;99.90;;;;;;5020237;28;20040;-88
2021/07/27 00:23:14;;;;;;;;;;;18.00;99.90;;;;;;5055321;28;20517;-88
2021/07/27 00:25:43;;;;;;;;;;;18.00;99.90;;;;;;5048686;28;20380;-88
2021/07/27 00:28:09;;;;;;;;;;;18.00;99.90;;;;;;5041276;28;19924;-87
2021/07/27 00:30:35;;;;;;;;;;;18.00;99.90;;;;;;5038843;28;20371;-88
2021/07/27 00:33:01;;;;;;;;;;;18.00;99.90;;;;;;5053801;28;19936;-89
2021/07/27 00:35:28;;;;;;;;;;;18.00;99.90;;;;;;5030744;28;19925;-88
2021/07/27 00:38:17;;;;;;;;;;;18.00;99.90;;;;;;5039260;28;20375;-87
2021/07/27 00:40:43;;;;;;;;;;;18.00;99.90;;;;;;5047457;28;19925;-88
2021/07/27 00:43:13;;;;;;;;;;;18.00;99.90;;;;;;5034371;28;19964;-88
2021/07/27 00:45:39;;;;;;;;;;;18.00;99.90;;;;;;5015526;28;19940;-89
2021/07/27 00:48:05;;;;;;;;;;;17.90;99.90;;;;;;5058434;28;19921;-87
2021/07/27 00:50:31;;;;;;;;;;;17.80;99.90;;;;;;5038374;28;20386;-88
2021/07/27 00:52:59;;;;;;;;;;;17.70;99.90;;;;;;5034323;28;20295;-87
2021/07/27 00:55:28;;;;;;;;;;;17.70;99.90;;;;;;5015716;28;19935;-87
2021/07/27 00:57:54;;;;;;;;;;;17.60;99.90;;;;;;5025825;28;20280;-88
2021/07/27 01:00:20;;;;;;;;;;;17.40;99.90;;;;;;5040044;28;19929;-87
2021/07/27 01:02:46;;;;;;;;;;;17.40;99.90;;;;;;5039813;28;19973;-87
2021/07/27 01:05:12;;;;;;;;;;;17.40;99.90;;;;;;5015169;28;20080;-87
2021/07/27 01:07:38;;;;;;;;;;;17.40;99.90;;;;;;5023149;28;20436;-87
2021/07/27 01:10:05;;;;;;;;;;;17.40;99.90;;;;;;5038245;28;19929;-87
2021/07/27 01:12:31;;;;;;;;;;;17.40;99.90;;;;;;5027229;28;19920;-88
2021/07/27 01:14:57;;;;;;;;;;;17.30;99.90;;;;;;5056832;28;19929;-87
2021/07/27 01:17:22;;;;;;;;;;;17.40;99.90;;;;;;5035572;28;20406;-88
2021/07/27 01:19:55;;;;;;;;;;;17.40;99.90;;;;;;5022943;28;20307;-88
2021/07/27 01:44:03;;;;;;;;;;;17.60;99.90;;;;;;5037243;28;19925;-88
2021/07/27 01:46:36;;;;;;;;;;;17.60;99.90;;;;;;5031301;28;20363;-87
2021/07/27 01:49:02;;;;;;;;;;;17.60;99.90;;;;;;5028307;28;19925;-89
2021/07/27 01:51:31;;;;;;;;;;;17.60;99.90;;;;;;5007458;28;19925;-88
2021/07/27 01:53:57;;;;;;;;;;;17.60;99.90;;;;;;5045895;28;20769;-88
2021/07/27 01:56:24;;;;;;;;;;;17.60;99.90;;;;;;5040032;28;19925;-89
2021/07/27 01:58:50;;;;;;;;;;;17.60;99.90;;;;;;5062408;28;20027;-87
2021/07/27 02:01:18;;;;;;;;;;;17.60;99.90;;;;;;5011422;28;19967;-88
2021/07/27 02:03:44;;;;;;;;;;;17.60;99.90;;;;;;5018250;28;19932;-88
2021/07/27 02:06:10;;;;;;;;;;;17.60;99.90;;;;;;5034974;28;19931;-88
2021/07/27 02:08:35;;;;;;;;;;;17.60;99.90;;;;;;5026470;28;20078;-88
2021/07/27 02:11:07;;;;;;;;;;;17.60;99.90;;;;;;5056777;28;19928;-87
2021/07/27 02:13:44;;;;;;;;;;;17.60;99.90;;;;;;5021935;28;19963;-88
2021/07/27 02:16:09;;;;;;;;;;;17.70;99.90;;;;;;5042754;28;19931;-88
2021/07/27 02:18:35;;;;;;;;;;;17.70;99.90;;;;;;5052117;28;19920;-88
2021/07/27 02:21:01;;;;;;;;;;;17.70;99.90;;;;;;5042224;28;19925;-88
2021/07/27 02:23:27;;;;;;;;;;;17.60;99.90;;;;;;5027049;28;20622;-88
2021/07/27 02:25:53;;;;;;;;;;;17.60;99.90;;;;;;5009320;28;19925;-89
2021/07/27 02:28:18;;;;;;;;;;;17.60;99.90;;;;;;5041241;28;19925;-89
2021/07/27 02:30:55;;;;;;;;;;;17.60;99.90;;;;;;5064417;28;20027;-88
2021/07/27 02:33:22;;;;;;;;;;;17.60;99.90;;;;;;5002188;28;19979;-88
2021/07/27 02:35:47;;;;;;;;;;;17.60;99.90;;;;;;5034877;28;19945;-88
2021/07/27 02:38:15;;;;;;;;;;;17.50;99.90;;;;;;5036254;28;20395;-88
2021/07/27 02:40:41;;;;;;;;;;;17.40;99.90;;;;;;5044956;28;19956;-88
2021/07/27 02:43:06;;;;;;;;;;;17.30;99.90;;;;;;5042470;28;19970;-89
2021/07/27 02:45:32;;;;;;;;;;;17.30;99.90;;;;;;5036508;28;19925;-89
2021/07/27 02:47:58;;;;;;;;;;;17.30;99.90;;;;;;5036025;28;19925;-89
2021/07/27 02:50:23;;;;;;;;;;;17.20;99.90;;;;;;5019462;28;19932;-87
2021/07/27 02:52:49;;;;;;;;;;;17.10;99.90;;;;;;5031656;28;20613;-89
2021/07/27 02:55:15;;;;;;;;;;;17.00;99.90;;;;;;5030428;28;20338;-88
2021/07/27 02:57:41;;;;;;;;;;;17.00;99.90;;;;;;5045846;28;19968;-88
2021/07/27 03:00:10;;;;;;;;;;;16.90;99.90;;;;;;5024957;28;20015;-89
2021/07/27 03:02:37;;;;;;;;;;;16.90;99.90;;;;;;5035037;28;19933;-89
2021/07/27 03:05:06;;;;;;;;;;;16.80;99.90;;;;;;5044784;28;22708;-88
2021/07/27 03:10:22;;;;;;;;;;;16.80;99.90;;;;;;5059718;28;19952;-88
2021/07/27 03:12:47;;;;;;;;;;;16.80;99.90;;;;;;5041521;28;20107;-88
2021/07/27 03:15:14;;;;;;;;;;;16.80;99.90;;;;;;5040766;28;20023;-90
2021/07/27 03:17:40;;;;;;;;;;;16.80;99.90;;;;;;5035476;28;19920;-89
2021/07/27 03:20:07;;;;;;;;;;;16.70;99.90;;;;;;5042724;28;19931;-88
2021/07/27 03:22:33;;;;;;;;;;;16.80;99.90;;;;;;5044197;28;19920;-88
2021/07/27 03:24:58;;;;;;;;;;;16.80;99.90;;;;;;5046521;28;19931;-88
2021/07/27 03:27:24;;;;;;;;;;;16.80;99.90;;;;;;5027345;28;20427;-87
2021/07/27 03:29:50;;;;;;;;;;;16.80;99.90;;;;;;5040945;28;20014;-87
2021/07/27 03:32:18;;;;;;;;;;;16.80;99.90;;;;;;5038093;28;20066;-89
2021/07/27 03:34:43;;;;;;;;;;;16.80;99.90;;;;;;5024716;28;20432;-88
2021/07/27 03:37:13;;;;;;;;;;;16.70;99.90;;;;;;5041078;28;19925;-88
2021/07/27 03:39:39;;;;;;;;;;;16.70;99.90;;;;;;5041539;28;19973;-88
2021/07/27 03:42:05;;;;;;;;;;;16.70;99.90;;;;;;5027084;28;19929;-88
2021/07/27 03:44:31;;;;;;;;;;;16.70;99.90;;;;;;5038884;28;20018;-88
2021/07/27 03:47:00;;;;;;;;;;;16.70;99.90;;;;;;5040906;28;20410;-88
2021/07/27 03:49:29;;;;;;;;;;;16.60;99.90;;;;;;5041174;28;19928;-89
2021/07/27 03:52:01;;;;;;;;;;;16.70;99.90;;;;;;5039448;28;19920;-88
2021/07/27 03:54:31;;;;;;;;;;;16.70;99.90;;;;;;5029083;28;19928;-88
2021/07/27 03:56:57;;;;;;;;;;;16.70;99.90;;;;;;5039469;28;19921;-88
2021/07/27 03:59:22;;;;;;;;;;;16.60;99.90;;;;;;5039758;28;19939;-88
2021/07/27 04:01:48;;;;;;;;;;;16.70;99.90;;;;;;5042380;28;19932;-89
2021/07/27 04:04:17;;;;;;;;;;;16.60;99.90;;;;;;5005932;28;19996;-88
2021/07/27 04:06:43;;;;;;;;;;;16.70;99.90;;;;;;5004476;28;19924;-87
2021/07/27 04:09:09;;;;;;;;;;;16.70;99.90;;;;;;4987861;28;19932;-88
2021/07/27 04:11:35;;;;;;;;;;;16.70;99.90;;;;;;4983339;28;20963;-89
2021/07/27 04:14:03;;;;;;;;;;;16.80;99.90;;;;;;5010609;28;20300;-88
2021/07/27 04:16:28;;;;;;;;;;;16.70;99.90;;;;;;5023352;28;20386;-88
2021/07/27 04:18:54;;;;;;;;;;;16.70;99.90;;;;;;5017493;28;19948;-89
2021/07/27 04:21:20;;;;;;;;;;;16.80;99.90;;;;;;5000101;28;19925;-87
2021/07/27 04:23:46;;;;;;;;;;;16.70;99.90;;;;;;5019295;28;19929;-87
2021/07/27 04:26:11;;;;;;;;;;;16.70;99.90;;;;;;5022727;28;20011;-88
2021/07/27 04:28:37;;;;;;;;;;;16.80;99.90;;;;;;5017152;28;19925;-88
2021/07/27 04:31:03;;;;;;;;;;;16.80;99.90;;;;;;4996070;28;20368;-89
2021/07/27 04:33:28;;;;;;;;;;;16.70;99.90;;;;;;5018711;28;19925;-88
2021/07/27 04:35:54;;;;;;;;;;;16.70;99.90;;;;;;5020484;28;19925;-88
2021/07/27 04:38:23;;;;;;;;;;;16.70;99.90;;;;;;5016838;28;20388;-88
2021/07/27 04:40:52;;;;;;;;;;;16.70;99.90;;;;;;5031015;28;19936;-88
2021/07/27 04:43:18;;;;;;;;;;;16.70;99.90;;;;;;5020490;28;19921;-88
2021/07/27 04:45:43;;;;;;;;;;;16.70;99.90;;;;;;5017579;28;20299;-88
2021/07/27 04:48:09;;;;;;;;;;;16.70;99.90;;;;;;5005063;28;19928;-88
2021/07/27 04:50:39;;;;;;;;;;;16.80;99.90;;;;;;5035771;28;19928;-88
2021/07/27 04:53:06;;;;;;;;;;;16.80;99.90;;;;;;4991386;28;19929;-87
2021/07/27 04:55:32;;;;;;;;;;;16.80;99.90;;;;;;5038854;28;19917;-87
2021/07/27 04:57:58;;;;;;;;;;;16.80;99.90;;;;;;5036899;28;19921;-87
2021/07/27 05:00:26;;;;;;;;;;;16.80;99.90;;;;;;5002067;28;20071;-86
2021/07/27 05:02:52;;;;;;;;;;;16.80;99.90;;;;;;5025638;28;20027;-90
2021/07/27 05:05:18;;;;;;;;;;;16.80;99.90;;;;;;5027240;28;19933;-90
2021/07/27 05:07:45;;;;;;;;;;;16.80;99.90;;;;;;5042734;28;20047;-90
2021/07/27 05:10:11;;;;;;;;;;;16.80;99.90;;;;;;5059483;28;19948;-89
2021/07/27 05:12:37;;;;;;;;;;;16.80;99.90;;;;;;5022212;28;19966;-89
2021/07/27 05:15:03;;;;;;;;;;;16.80;99.90;;;;;;5041099;28;20007;-89
2021/07/27 05:17:29;;;;;;;;;;;16.80;99.90;;;;;;5018428;28;19932;-90
2021/07/27 05:19:55;;;;;;;;;;;16.80;99.90;;;;;;5034616;28;20438;-91
2021/07/27 05:22:23;;;;;;;;;;;16.80;99.90;;;;;;5021302;28;19924;-90
2021/07/27 05:24:52;;;;;;;;;;;16.80;99.90;;;;;;5022764;28;20044;-90
2021/07/27 05:27:23;;;;;;;;;;;16.80;99.90;;;;;;5018743;28;19928;-88
2021/07/27 05:29:49;;;;;;;;;;;16.80;99.90;;;;;;5035303;28;20011;-91
2021/07/27 05:32:15;;;;;;;;;;;16.90;99.90;;;;;;5034022;28;19925;-88
2021/07/27 05:34:40;;;;;;;;;;;16.90;99.90;;;;;;5051227;28;19921;-88
2021/07/27 05:37:07;;;;;;;;;;;17.00;99.90;;;;;;5033394;28;19932;-89
2021/07/27 05:39:33;;;;;;;;;;;17.00;99.90;;;;;;5000715;28;20066;-89
2021/07/27 05:41:59;;;;;;;;;;;17.00;99.90;;;;;;5000045;28;19944;-89
2021/07/27 05:44:25;;;;;;;;;;;17.00;99.90;;;;;;5016424;28;19971;-89
2021/07/27 05:46:54;;;;;;;;;;;17.00;99.90;;;;;;5030008;28;20391;-88
2021/07/27 05:49:21;;;;;;;;;;;17.00;99.90;;;;;;5018709;28;19978;-88
2021/07/27 05:51:47;;;;;;;;;;;17.10;99.90;;;;;;5035252;28;19920;-89
2021/07/27 05:54:13;;;;;;;;;;;17.20;99.90;;;;;;5034705;28;20019;-88
2021/07/27 05:56:39;;;;;;;;;;;17.20;99.90;;;;;;5011530;28;20027;-89
2021/07/27 05:59:08;;;;;;;;;;;17.20;99.90;;;;;;5054475;28;19994;-87
2021/07/27 06:01:34;;;;;;;;;;;17.30;99.90;;;;;;5035389;28;20511;-88
2021/07/27 06:04:00;;;;;;;;;;;17.30;99.90;;;;;;5035187;28;19921;-89
2021/07/27 06:06:31;;;;;;;;;;;17.30;99.90;;;;;;5020960;28;19928;-88
2021/07/27 06:09:06;;;;;;;;;;;17.40;99.90;;;;;;5054453;28;19925;-87
2021/07/27 06:11:33;;;;;;;;;;;17.40;99.90;;;;;;5034997;28;19974;-88
2021/07/27 06:14:00;;;;;;;;;;;17.40;99.90;;;;;;5035134;28;19920;-88
2021/07/27 06:16:26;;;;;;;;;;;17.50;99.90;;;;;;5018105;28;19929;-87
2021/07/27 06:18:52;;;;;;;;;;;17.60;99.90;;;;;;5051992;28;19927;-88
2021/07/27 06:21:18;;;;;;;;;;;17.70;99.90;;;;;;5034313;28;19924;-88
2021/07/27 06:23:44;;;;;;;;;;;17.70;99.90;;;;;;5018208;28;20356;-87
2021/07/27 06:26:10;;;;;;;;;;;17.80;99.90;;;;;;5017914;28;19925;-88
2021/07/27 06:28:36;;;;;;;;;;;17.80;99.90;;;;;;5034358;28;20706;-88
2021/07/27 06:31:03;;;;;;;;;;;17.80;99.90;;;;;;5017298;28;19963;-88
2021/07/27 06:33:28;;;;;;;;;;;17.70;99.90;;;;;;5031486;28;19921;-87
2021/07/27 06:35:57;;;;;;;;;;;17.60;99.90;;;;;;5017203;28;19939;-88
2021/07/27 06:38:24;;;;;;;;;;;17.60;99.90;;;;;;5050883;28;19924;-87
2021/07/27 06:40:49;;;;;;;;;;;17.60;99.90;;;;;;5017550;28;19939;-88
2021/07/27 06:43:15;;;;;;;;;;;17.50;99.90;;;;;;5001587;28;19924;-87
2021/07/27 06:45:42;;;;;;;;;;;17.60;99.90;;;;;;5033150;28;19924;-86
2021/07/27 06:48:11;;;;;;;;;;;17.60;99.90;;;;;;5033269;28;19917;-88
2021/07/27 06:50:36;;;;;;;;;;;17.70;99.90;;;;;;5017654;28;20705;-87
2021/07/27 06:53:02;;;;;;;;;;;17.70;99.90;;;;;;5033442;28;19920;-87
2021/07/27 06:55:28;;;;;;;;;;;17.70;99.90;;;;;;5024345;28;20043;-87
2021/07/27 06:57:54;;;;;;;;;;;17.70;99.90;;;;;;5016385;28;20380;-89
2021/07/27 07:00:20;;;;;;;;;;;17.80;99.90;;;;;;5016797;28;19974;-88
2021/07/27 07:02:46;;;;;;;;;;;17.80;99.90;;;;;;5030851;28;19920;-87
2021/07/27 07:05:12;;;;;;;;;;;17.80;99.90;;;;;;5046603;28;20392;-87
2021/07/27 07:07:39;;;;;;;;;;;17.80;99.90;;;;;;5014073;28;20347;-88
2021/07/27 07:10:05;;;;;;;;;;;17.80;99.90;;;;;;5047551;28;19925;-87
2021/07/27 07:12:31;;;;;;;;;;;17.90;99.90;;;;;;5014271;28;19921;-87
2021/07/27 07:14:57;;;;;;;;;;;17.90;99.90;;;;;;5030632;28;19927;-87
2021/07/27 07:17:23;;;;;;;;;;;18.00;99.90;;;;;;5014102;28;19952;-87
2021/07/27 07:19:49;;;;;;;;;;;18.10;99.90;;;;;;5015411;28;20384;-88
2021/07/27 07:22:16;;;;;;;;;;;18.00;99.90;;;;;;5015807;28;19924;-87
2021/07/27 07:24:42;;;;;;;;;;;18.10;99.90;;;;;;5031432;28;20012;-87
2021/07/27 07:27:08;;;;;;;;;;;18.10;99.90;;;;;;5031309;28;20015;-87
2021/07/27 07:29:34;;;;;;;;;;;18.10;99.90;;;;;;5014538;28;19921;-87
2021/07/27 07:31:59;;;;;;;;;;;18.20;99.90;;;;;;5014317;28;20123;-87
2021/07/27 07:34:25;;;;;;;;;;;18.20;99.90;;;;;;5014511;28;20031;-87
2021/07/27 07:36:51;;;;;;;;;;;18.20;99.90;;;;;;5032092;28;19964;-87
2021/07/27 07:39:16;;;;;;;;;;;18.30;99.90;;;;;;5030703;28;20384;-89
2021/07/27 07:41:42;;;;;;;;;;;18.30;99.90;;;;;;4998609;28;19968;-88
2021/07/27 07:44:09;;;;;;;;;;;18.30;99.90;;;;;;5030728;28;19925;-87
2021/07/27 07:46:35;;;;;;;;;;;18.40;99.90;;;;;;5031214;28;20327;-87
2021/07/27 07:49:00;;;;;;;;;;;18.40;99.90;;;;;;5013529;28;19975;-87
2021/07/27 07:51:26;;;;;;;;;;;18.40;99.90;;;;;;5014746;28;19932;-87
2021/07/27 07:53:52;;;;;;;;;;;18.40;99.90;;;;;;5012861;28;20299;-88
2021/07/27 07:56:17;;;;;;;;;;;18.50;99.90;;;;;;5014575;28;19928;-88
2021/07/27 07:58:44;;;;;;;;;;;18.50;99.90;;;;;;5029863;28;19925;-87
2021/07/27 08:01:10;;;;;;;;;;;18.40;99.90;;;;;;5014117;28;19979;-87
2021/07/27 08:03:36;;;;;;;;;;;18.40;99.90;;;;;;5030169;28;19933;-87
2021/07/27 08:06:02;;;;;;;;;;;18.50;99.90;;;;;;5013419;28;19931;-87
2021/07/27 08:08:28;;;;;;;;;;;18.50;99.90;;;;;;5030660;28;19939;-87
2021/07/27 08:10:54;;;;;;;;;;;18.50;99.90;;;;;;5013406;28;19921;-88
2021/07/27 08:13:19;;;;;;;;;;;18.60;99.90;;;;;;5013613;28;19931;-87
2021/07/27 08:15:47;;;;;;;;;;;18.70;99.90;;;;;;5014919;28;19925;-87
2021/07/27 08:18:13;;;;;;;;;;;18.70;99.90;;;;;;5015132;28;19925;-87
2021/07/27 08:20:39;;;;;;;;;;;18.80;99.90;;;;;;5014231;28;20482;-90
2021/07/27 08:23:05;;;;;;;;;;;18.70;99.90;;;;;;5031307;28;19924;-88
2021/07/27 08:25:30;;;;;;;;;;;18.70;99.90;;;;;;5031324;28;19931;-87
2021/07/27 08:27:56;;;;;;;;;;;18.70;99.90;;;;;;4998375;28;20265;-87
2021/07/27 08:30:22;;;;;;;;;;;18.80;99.90;;;;;;5029933;28;19928;-86
2021/07/27 08:32:48;;;;;;;;;;;18.80;99.90;;;;;;5029283;28;20471;-86
2021/07/27 08:35:15;;;;;;;;;;;18.90;99.90;;;;;;5028656;28;19925;-86
2021/07/27 08:37:40;;;;;;;;;;;19.00;99.90;;;;;;5031030;28;19927;-87
2021/07/27 08:40:07;;;;;;;;;;;19.00;99.90;;;;;;5048593;28;20007;-86
2021/07/27 08:42:33;;;;;;;;;;;19.00;99.90;;;;;;5014113;28;19924;-86
2021/07/27 08:45:00;;;;;;;;;;;19.00;99.90;;;;;;5031409;28;19924;-86
2021/07/27 08:47:26;;;;;;;;;;;19.00;99.90;;;;;;5030264;28;20011;-87
2021/07/27 08:49:54;;;;;;;;;;;19.10;99.90;;;;;;5005583;28;19921;-87
2021/07/27 08:52:20;;;;;;;;;;;19.10;99.90;;;;;;5028404;28;19917;-89
2021/07/27 08:54:47;;;;;;;;;;;19.10;99.90;;;;;;5030631;28;19971;-89
2021/07/27 08:57:14;;;;;;;;;;;19.10;99.90;;;;;;4997556;28;20019;-88
2021/07/27 08:59:40;;;;;;;;;;;19.10;99.90;;;;;;5030494;28;19920;-88
2021/07/27 09:02:05;;;;;;;;;;;19.10;99.90;;;;;;5029876;28;19925;-87
2021/07/27 09:04:31;;;;;;;;;;;19.10;99.90;;;;;;5018328;28;19928;-89
2021/07/27 09:07:01;;;;;;;;;;;19.10;99.90;;;;;;5010039;28;20390;-88
2021/07/27 09:09:29;;;;;;;;;;;19.10;99.90;;;;;;5041775;28;19925;-88
2021/07/27 09:11:56;;;;;;;;;;;19.20;99.90;;;;;;5023341;28;19924;-87
2021/07/27 09:14:22;;;;;;;;;;;19.20;99.90;;;;;;5036071;28;20664;-87
2021/07/27 09:16:49;;;;;;;;;;;19.30;99.90;;;;;;5030445;28;19964;-87
2021/07/27 09:19:15;;;;;;;;;;;19.30;99.90;;;;;;4994301;28;20306;-87
2021/07/27 09:21:45;;;;;;;;;;;19.30;99.90;;;;;;5010963;28;20535;-87
2021/07/27 09:24:22;;;;;;;;;;;19.30;99.90;;;;;;5027428;28;19927;-87
2021/07/27 09:26:54;;;;;;;;;;;19.30;99.90;;;;;;5027537;28;19925;-87
2021/07/27 09:29:19;;;;;;;;;;;19.30;99.90;;;;;;5039176;28;20003;-87
2021/07/27 09:31:52;;;;;;;;;;;19.40;99.90;;;;;;5029018;28;20079;-86
2021/07/27 09:34:17;;;;;;;;;;;19.50;99.90;;;;;;5013884;28;20296;-86
2021/07/27 09:36:43;;;;;;;;;;;19.50;99.90;;;;;;5028074;28;19924;-87
2021/07/27 09:39:09;;;;;;;;;;;19.60;99.90;;;;;;5033816;28;19924;-86
2021/07/27 09:41:34;;;;;;;;;;;19.80;99.90;;;;;;5022502;28;19921;-88
2021/07/27 09:44:00;;;;;;;;;;;19.80;99.90;;;;;;5053921;28;19929;-87
2021/07/27 09:46:26;;;;;;;;;;;19.80;99.90;;;;;;5029289;28;19975;-89
2021/07/27 09:48:53;;;;;;;;;;;19.90;99.90;;;;;;5030422;28;20000;-87
2021/07/27 09:51:19;;;;;;;;;;;20.00;99.90;;;;;;5045707;28;19925;-87
2021/07/27 09:53:45;;;;;;;;;;;20.10;99.90;;;;;;5046571;28;19929;-86
2021/07/27 09:56:10;;;;;;;;;;;20.10;99.90;;;;;;5034267;28;20462;-87
2021/07/27 09:58:37;;;;;;;;;;;20.10;99.90;;;;;;5043996;28;19929;-87
2021/07/27 10:01:05;;;;;;;;;;;20.20;99.90;;;;;;5031667;28;19975;-87
2021/07/27 10:03:32;;;;;;;;;;;20.30;99.90;;;;;;5033456;28;19928;-86
2021/07/27 10:06:00;;;;;;;;;;;20.30;99.90;;;;;;5047511;28;20023;-87
2021/07/27 10:08:30;;;;;;;;;;;20.30;99.90;;;;;;5028131;28;20384;-87
2021/07/27 10:11:10;;;;;;;;;;;20.30;99.90;;;;;;5033888;28;19929;-86
2021/07/27 10:13:36;;;;;;;;;;;20.30;99.90;;;;;;5044445;28;19928;-87
2021/07/27 10:16:02;;;;;;;;;;;20.30;99.90;;;;;;5012782;28;19933;-86
2021/07/27 10:18:32;;;;;;;;;;;20.30;99.90;;;;;;5028037;28;19925;-86
2021/07/27 10:21:16;;;;;;;;;;;20.30;99.90;;;;;;5013194;28;20002;-86
2021/07/27 10:23:43;;;;;;;;;;;20.30;99.90;;;;;;5032581;28;20376;-86
2021/07/27 10:26:08;;;;;;;;;;;20.30;99.90;;;;;;5003666;28;19928;-87
2021/07/27 10:28:34;;;;;;;;;;;20.30;99.90;;;;;;5018868;28;19925;-86
2021/07/27 10:31:04;;;;;;;;;;;20.40;99.90;;;;;;5035889;28;19931;-87
2021/07/27 10:33:30;;;;;;;;;;;20.50;99.90;;;;;;5054931;28;19979;-86
2021/07/27 10:35:56;;;;;;;;;;;20.50;99.90;;;;;;5036435;28;19940;-87
2021/07/27 10:38:21;;;;;;;;;;;20.50;99.90;;;;;;5016252;28;19924;-87
2021/07/27 10:40:47;;;;;;;;;;;20.60;99.90;;;;;;5032946;28;19950;-87
2021/07/27 10:43:26;;;;;;;;;;;20.60;99.90;;;;;;5013058;28;19925;-87
2021/07/27 10:45:58;;;;;;;;;;;20.60;99.90;;;;;;5031490;28;19929;-86
2021/07/27 10:48:31;;;;;;;;;;;20.60;99.90;;;;;;5027563;28;20335;-86
2021/07/27 10:50:58;;;;;;;;;;;20.70;99.90;;;;;;5052148;28;19928;-87
2021/07/27 10:53:24;;;;;;;;;;;20.70;99.90;;;;;;5016284;28;19924;-87
2021/07/27 10:55:51;;;;;;;;;;;20.80;99.90;;;;;;5015422;28;20407;-86
2021/07/27 10:58:17;;;;;;;;;;;20.80;99.90;;;;;;5030480;28;19920;-87
2021/07/27 11:00:43;;;;;;;;;;;20.80;99.90;;;;;;5014977;28;19924;-87
2021/07/27 11:03:09;;;;;;;;;;;20.80;99.90;;;;;;5003403;28;19932;-87
2021/07/27 11:05:35;;;;;;;;;;;20.80;99.90;;;;;;5028038;28;20019;-86
2021/07/27 11:08:02;;;;;;;;;;;20.80;99.90;;;;;;5011576;28;19928;-87
2021/07/27 11:10:29;;;;;;;;;;;20.80;99.90;;;;;;5011236;28;20284;-88
2021/07/27 11:12:57;;;;;;;;;;;20.80;99.90;;;;;;5011661;28;19932;-87
2021/07/27 11:15:23;;;;;;;;;;;20.70;99.90;;;;;;5011001;28;19929;-89
2021/07/27 11:17:55;;;;;;;;;;;20.70;99.90;;;;;;5029068;28;19940;-87
2021/07/27 11:20:41;;;;;;;;;;;20.70;99.90;;;;;;5010927;28;20377;-87
2021/07/27 11:23:14;;;;;;;;;;;20.90;99.90;;;;;;5010463;28;19928;-88
2021/07/27 11:25:40;;;;;;;;;;;21.00;99.90;;;;;;5010179;28;21893;-86
2021/07/27 11:28:12;;;;;;;;;;;21.00;99.90;;;;;;5029427;28;19937;-89
2021/07/27 11:30:38;;;;;;;;;;;21.10;99.90;;;;;;5013204;28;19924;-88
2021/07/27 11:33:11;;;;;;;;;;;21.10;99.90;;;;;;5012701;28;19921;-87
2021/07/27 11:35:44;;;;;;;;;;;21.10;99.90;;;;;;5030299;28;20014;-88
2021/07/27 11:38:10;;;;;;;;;;;21.10;99.90;;;;;;5014751;28;19921;-89
2021/07/27 11:40:36;;;;;;;;;;;21.10;99.90;;;;;;5028285;28;20296;-88
2021/07/27 11:43:09;;;;;;;;;;;21.00;99.90;;;;;;5011844;28;19921;-87
2021/07/27 11:45:36;;;;;;;;;;;21.00;99.90;;;;;;4996181;28;19979;-87
2021/07/27 11:48:02;;;;;;;;;;;21.10;99.90;;;;;;5011777;28;19921;-87
2021/07/27 11:50:29;;;;;;;;;;;21.10;99.90;;;;;;5011692;28;19928;-89
2021/07/27 11:52:55;;;;;;;;;;;21.10;99.90;;;;;;4995402;28;20373;-88
2021/07/27 11:55:27;;;;;;;;;;;21.20;99.90;;;;;;5012270;28;19940;-88
2021/07/27 11:57:52;;;;;;;;;;;21.20;99.90;;;;;;4996320;28;19970;-88
2021/07/27 12:00:18;;;;;;;;;;;21.20;99.90;;;;;;4996335;28;19929;-88
2021/07/27 12:02:44;;;;;;;;;;;21.30;99.90;;;;;;5016368;28;19928;-88
2021/07/27 12:05:10;;;;;;;;;;;21.40;99.90;;;;;;5015880;28;20712;-89
2021/07/27 12:07:38;;;;;;;;;;;21.50;99.90;;;;;;5014876;28;20434;-88
2021/07/27 12:10:04;;;;;;;;;;;21.50;99.90;;;;;;5015812;28;19944;-88
2021/07/27 12:12:29;;;;;;;;;;;21.40;99.90;;;;;;5031892;28;19925;-87
2021/07/27 12:14:56;;;;;;;;;;;21.40;99.90;;;;;;5014832;28;20027;-88
2021/07/27 12:17:21;;;;;;;;;;;21.50;99.90;;;;;;5030640;28;20448;-88
2021/07/27 12:19:47;;;;;;;;;;;21.60;99.90;;;;;;5020575;28;20339;-87
2021/07/27 12:22:13;;;;;;;;;;;21.70;99.90;;;;;;4983876;28;20482;-87
2021/07/27 12:24:38;;;;;;;;;;;21.70;99.90;;;;;;5031161;28;19978;-87
2021/07/27 12:27:04;;;;;;;;;;;21.80;99.90;;;;;;5031688;28;19928;-87
2021/07/27 12:29:30;;;;;;;;;;;21.80;99.90;;;;;;4998585;28;19999;-87
2021/07/27 12:31:55;;;;;;;;;;;21.90;99.90;;;;;;5030539;28;19971;-89
2021/07/27 12:34:21;;;;;;;;;;;21.90;99.90;;;;;;5032794;28;19936;-87
2021/07/27 12:36:47;;;;;;;;;;;21.90;99.90;;;;;;5047575;28;20381;-87
2021/07/27 12:39:13;;;;;;;;;;;22.00;99.90;;;;;;5031105;28;19955;-88
2021/07/27 12:41:38;;;;;;;;;;;22.10;99.90;;;;;;5029353;28;19931;-87
2021/07/27 12:44:04;;;;;;;;;;;22.10;99.90;;;;;;5041226;28;19975;-86
2021/07/27 12:46:31;;;;;;;;;;;22.10;99.90;;;;;;5041210;28;20027;-87
2021/07/27 12:48:59;;;;;;;;;;;22.00;99.90;;;;;;5031198;28;20327;-87
2021/07/27 12:51:25;;;;;;;;;;;22.00;99.90;;;;;;5023578;28;20376;-87
2021/07/27 12:53:51;;;;;;;;;;;22.00;99.90;;;;;;5046707;28;19924;-88
2021/07/27 12:56:17;;;;;;;;;;;21.90;99.90;;;;;;5028885;28;19929;-88
2021/07/27 12:58:42;;;;;;;;;;;21.90;99.90;;;;;;5017350;28;19933;-87
2021/07/27 13:01:08;;;;;;;;;;;21.90;99.90;;;;;;5016861;28;19925;-86
2021/07/27 13:03:34;;;;;;;;;;;21.90;99.90;;;;;;5030072;28;19931;-87
2021/07/27 13:06:00;;;;;;;;;;;22.00;99.90;;;;;;5013089;28;20010;-88
2021/07/27 13:08:26;;;;;;;;;;;22.20;99.90;;;;;;4998841;28;19921;-87
2021/07/27 13:10:51;;;;;;;;;;;22.40;99.90;;;;;;4996682;28;19975;-88
2021/07/27 13:13:17;;;;;;;;;;;22.40;99.90;;;;;;5004988;28;20361;-90
2021/07/27 13:15:44;;;;;;;;;;;22.50;99.90;;;;;;4999805;28;20415;-87
2021/07/27 13:18:09;;;;;;;;;;;22.60;99.90;;;;;;5011786;28;19921;-91
2021/07/27 13:20:35;;;;;;;;;;;22.70;99.90;;;;;;5011664;28;20339;-90
2021/07/27 13:23:01;;;;;;;;;;;22.70;99.90;;;;;;5011878;28;19925;-91
2021/07/27 13:25:27;;;;;;;;;;;22.70;99.90;;;;;;5012218;28;19925;-90
2021/07/27 13:27:55;;;;;;;;;;;22.70;99.90;;;;;;4997698;28;19944;-89
2021/07/27 13:30:20;;;;;;;;;;;22.70;99.90;;;;;;4996778;28;19921;-89
2021/07/27 13:32:46;;;;;;;;;;;22.70;99.90;;;;;;5014226;28;19925;-90
2021/07/27 13:35:12;;;;;;;;;;;22.70;99.90;;;;;;5013839;28;20380;-90
2021/07/27 13:37:38;;;;;;;;;;;22.70;99.90;;;;;;5013402;28;20015;-90
2021/07/27 13:40:04;;;;;;;;;;;22.70;99.90;;;;;;4998143;28;19925;-91
2021/07/27 13:42:30;;;;;;;;;;;22.70;99.90;;;;;;5014944;28;19921;-92
2021/07/27 13:44:55;;;;;;;;;;;22.70;99.90;;;;;;5017436;28;19925;-89
2021/07/27 13:47:21;;;;;;;;;;;22.80;99.90;;;;;;5001778;28;20415;-90
2021/07/27 13:49:47;;;;;;;;;;;22.80;99.90;;;;;;5017991;28;19921;-90
2021/07/27 13:52:12;;;;;;;;;;;22.70;99.90;;;;;;5018444;28;19925;-89
2021/07/27 13:54:40;;;;;;;;;;;22.70;99.90;;;;;;5002583;28;19932;-89
2021/07/27 13:57:06;;;;;;;;;;;22.80;99.90;;;;;;5002104;28;19932;-91
2021/07/27 13:59:35;;;;;;;;;;;22.80;99.90;;;;;;5019009;28;19928;-89
2021/07/27 14:02:01;;;;;;;;;;;22.90;99.90;;;;;;5017963;28;19925;-88
2021/07/27 14:04:31;;;;;;;;;;;22.90;99.90;;;;;;5033405;28;19927;-90
2021/07/27 14:07:00;;;;;;;;;;;22.90;99.90;;;;;;5019460;28;19925;-89
2021/07/27 14:09:27;;;;;;;;;;;23.00;99.90;;;;;;5002371;28;20372;-89
2021/07/27 14:11:52;;;;;;;;;;;23.00;99.90;;;;;;5016970;28;19928;-90
2021/07/27 14:14:18;;;;;;;;;;;23.20;99.90;;;;;;5050598;28;19924;-89
2021/07/27 14:16:44;;;;;;;;;;;23.30;99.90;;;;;;5016401;28;19932;-88
2021/07/27 14:19:10;;;;;;;;;;;23.30;99.90;;;;;;5017414;28;20287;-89
2021/07/27 14:21:36;;;;;;;;;;;23.10;99.90;;;;;;5033617;22;19929;-91
2021/07/27 14:24:02;;;;;;;;;;;22.90;99.90;;;;;;5020189;28;20303;-91
2021/07/27 14:26:28;;;;;;;;;;;22.80;99.90;;;;;;5026564;28;19927;-91
2021/07/27 14:28:54;;;;;;;;;;;22.60;99.90;;;;;;4999294;28;19925;-91
2021/07/27 14:31:20;;;;;;;;;;;22.50;99.90;;;;;;5014049;28;19948;-90
2021/07/27 14:33:45;;;;;;;;;;;22.40;99.90;;;;;;4998457;28;19975;-91
2021/07/27 14:36:11;;;;;;;;;;;22.40;99.90;;;;;;5001081;28;20359;-92
2021/07/27 14:38:37;;;;;;;;;;;22.50;99.90;;;;;;4983514;28;19932;-91